KMFE/MFE METAR and TAF weather

Enter ICAO airport designator
Station Type Date Time Source
KMFE METAR 2020/04/04 20:53 UTC NOAA

KMFE 042053Z 35016KT 10SM OVC008 19/16 A2984 RMK AO2 CIG 007V011 SLP103 60000 T01890156 55004


Station Type Date Time Source
KMFE Decoded METAR 2020/04/04 20:53 UTC NOAA

MCALLEN MILLER INTERNATIONAL AIRPORT , TX, United States (KMFE) 26-11N 98-15W 38M
Apr 04, 2020 - 04:53 PM EDT / 2020.04.04 2053 UTC
Wind: from the N (350 degrees) at 18 MPH (16 KT):0
Visibility: 10 mile(s):0
Sky conditions: overcast
Temperature: 66.0 F (18.9 C)
Dew Point: 60.1 F (15.6 C)
Relative Humidity: 81%
Pressure (altimeter): 29.84 in. Hg (1010 hPa)
Pressure tendency: 0.01 inches (0.4 hPa) lower than three hours ago
ob: KMFE 042053Z 35016KT 10SM OVC008 19/16 A2984 RMK AO2 CIG 007V011 SLP103 60000 T01890156 55004
cycle: 21

Station Type Date Time Source
KMFE TAF 2020/04/04 19:12 UTC NOAA

TAF
AMD KMFE 041911Z 0419/0518 30010KT P6SM OVC006
FM042300 02012KT P6SM VCSH OVC010
FM050100 01010KT P6SM VCSH OVC022
FM050300 01008KT P6SM OVC011

Example: see airport list